createdAt,value
2022-08-03T00:02:19.969Z,79.80
2022-08-03T00:04:48.622Z,79.80
2022-08-03T00:07:16.482Z,79.80
2022-08-03T00:09:44.465Z,79.80
2022-08-03T00:12:12.634Z,79.70
2022-08-03T00:14:40.392Z,79.70
2022-08-03T00:17:08.476Z,79.70
2022-08-03T00:19:36.609Z,79.70
2022-08-03T00:22:04.396Z,79.70
2022-08-03T00:24:32.350Z,79.70
2022-08-03T00:27:00.568Z,79.60
2022-08-03T00:29:28.447Z,79.50
2022-08-03T00:31:59.256Z,79.60
2022-08-03T00:34:36.263Z,79.70
2022-08-03T00:37:16.665Z,79.70
2022-08-03T00:39:47.414Z,79.70
2022-08-03T00:42:15.686Z,79.60
2022-08-03T00:44:45.346Z,79.70
2022-08-03T00:47:13.541Z,79.60
2022-08-03T00:49:42.526Z,79.70
2022-08-03T00:52:11.613Z,79.70
2022-08-03T00:54:40.261Z,79.90
2022-08-03T00:57:08.513Z,79.90
2022-08-03T00:59:38.589Z,80.00
2022-08-03T01:02:06.883Z,80.00
2022-08-03T01:04:34.658Z,80.00
2022-08-03T01:07:19.327Z,80.00
2022-08-03T01:10:05.138Z,80.10
2022-08-03T01:12:40.801Z,80.10
2022-08-03T01:15:16.030Z,80.30
2022-08-03T01:17:59.152Z,80.20
2022-08-03T01:20:35.651Z,80.20
2022-08-03T01:23:28.922Z,80.10
2022-08-03T01:26:34.626Z,80.20
2022-08-03T01:29:21.751Z,80.30
2022-08-03T01:33:00.127Z,80.40
2022-08-03T01:34:59.980Z,80.50
2022-08-03T01:37:38.730Z,80.50
2022-08-03T01:40:09.490Z,80.50
2022-08-03T01:42:40.100Z,80.40
2022-08-03T01:45:11.098Z,80.50
2022-08-03T01:47:40.750Z,80.50
2022-08-03T01:50:11.124Z,80.50
2022-08-03T01:52:41.672Z,80.60
2022-08-03T01:55:12.239Z,80.60
2022-08-03T01:58:05.233Z,80.60
2022-08-03T02:00:33.165Z,81.30
2022-08-03T02:03:02.423Z,80.60
2022-08-03T02:05:32.219Z,80.70
2022-08-03T02:08:03.420Z,80.60
2022-08-03T02:10:35.351Z,80.60
2022-08-03T02:13:07.467Z,80.60
2022-08-03T02:15:38.425Z,80.60
2022-08-03T02:18:09.080Z,80.60
2022-08-03T02:20:39.182Z,80.60
2022-08-03T02:23:07.460Z,80.70
2022-08-03T02:25:45.035Z,80.60
2022-08-03T02:28:18.494Z,80.70
2022-08-03T02:30:53.770Z,80.70
2022-08-03T02:33:27.640Z,80.80
2022-08-03T02:35:57.740Z,81.20
2022-08-03T02:38:27.616Z,81.00
2022-08-03T02:40:58.324Z,81.00
2022-08-03T02:43:29.615Z,81.00
2022-08-03T02:46:20.765Z,81.00
2022-08-03T02:48:53.984Z,81.10
2022-08-03T02:51:22.817Z,81.10
2022-08-03T02:53:51.881Z,81.10
2022-08-03T02:56:20.718Z,81.30
2022-08-03T02:58:50.270Z,81.40
2022-08-03T03:01:22.794Z,81.50
2022-08-03T03:03:52.658Z,81.40
2022-08-03T03:06:22.982Z,81.50
2022-08-03T03:08:59.302Z,81.60
2022-08-03T03:11:29.228Z,81.60
2022-08-03T03:13:58.719Z,81.60
2022-08-03T03:16:29.636Z,81.70
2022-08-03T03:18:59.256Z,81.60
2022-08-03T03:21:28.032Z,81.50
2022-08-03T03:23:56.075Z,81.50
2022-08-03T03:26:24.355Z,81.60
2022-08-03T03:28:52.734Z,81.60
2022-08-03T03:31:20.778Z,81.70
2022-08-03T03:33:49.316Z,81.60
2022-08-03T03:36:18.629Z,81.70
2022-08-03T03:38:46.452Z,81.70
2022-08-03T03:41:14.829Z,81.70
2022-08-03T03:43:43.278Z,81.80
2022-08-03T03:46:13.332Z,81.90
2022-08-03T03:48:41.509Z,81.90
2022-08-03T03:51:10.486Z,81.90
2022-08-03T03:53:38.377Z,81.90
2022-08-03T03:56:06.767Z,81.90
2022-08-03T03:58:34.692Z,81.80
2022-08-03T04:01:02.609Z,81.90
2022-08-03T04:03:31.113Z,81.90
2022-08-03T04:06:17.376Z,81.90
2022-08-03T04:09:04.831Z,81.80
2022-08-03T04:11:39.769Z,81.90
2022-08-03T04:14:20.644Z,81.80
2022-08-03T04:16:56.774Z,81.80
2022-08-03T04:19:32.696Z,81.80
2022-08-03T04:22:04.031Z,81.90
2022-08-03T04:24:39.078Z,81.90
2022-08-03T04:27:11.337Z,81.80
2022-08-03T04:29:48.525Z,81.80
2022-08-03T04:32:17.906Z,81.80
2022-08-03T04:34:47.613Z,81.70
2022-08-03T04:37:35.779Z,81.60
2022-08-03T04:40:09.011Z,81.70
2022-08-03T04:42:39.820Z,81.70
2022-08-03T04:45:11.895Z,81.70
2022-08-03T04:47:40.319Z,81.70
2022-08-03T04:50:12.479Z,81.70
2022-08-03T04:52:41.558Z,81.70
2022-08-03T04:55:10.203Z,81.60
2022-08-03T04:57:38.194Z,81.60
2022-08-03T05:00:07.174Z,81.70
2022-08-03T05:02:35.365Z,81.60
2022-08-03T05:05:04.751Z,81.60
2022-08-03T05:07:35.438Z,81.60
2022-08-03T05:10:15.202Z,81.50
2022-08-03T05:12:46.925Z,81.50
2022-08-03T05:15:16.180Z,81.60
2022-08-03T05:17:44.421Z,81.60
2022-08-03T05:20:12.738Z,81.60
2022-08-03T05:22:41.018Z,81.60
2022-08-03T05:25:09.014Z,81.60
2022-08-03T05:27:36.974Z,81.60
2022-08-03T05:30:32.287Z,81.70
2022-08-03T05:32:53.818Z,81.70
2022-08-03T05:35:56.793Z,81.60
2022-08-03T05:38:10.186Z,81.60
2022-08-03T05:40:38.803Z,81.50
2022-08-03T05:43:14.763Z,81.50
2022-08-03T05:45:43.555Z,81.50
2022-08-03T05:48:11.315Z,81.50
2022-08-03T05:50:42.797Z,81.60
2022-08-03T05:53:11.109Z,81.60
2022-08-03T05:55:39.058Z,81.60
2022-08-03T05:58:06.962Z,81.70
2022-08-03T06:00:35.113Z,81.80
2022-08-03T06:03:03.485Z,81.70
2022-08-03T06:05:31.807Z,81.60
2022-08-03T06:07:59.569Z,81.70
2022-08-03T06:10:36.527Z,82.30
2022-08-03T06:13:05.980Z,81.60
2022-08-03T06:15:35.727Z,81.60
2022-08-03T06:18:03.652Z,82.30
2022-08-03T06:20:31.460Z,81.80
2022-08-03T06:23:01.132Z,81.80
2022-08-03T06:25:29.475Z,81.90
2022-08-03T06:27:57.485Z,82.00
2022-08-03T06:30:26.006Z,82.00
2022-08-03T06:32:53.827Z,82.00
2022-08-03T06:35:21.743Z,82.00
2022-08-03T06:37:51.357Z,81.90
2022-08-03T06:40:29.250Z,81.90
2022-08-03T06:42:59.085Z,81.90
2022-08-03T06:45:31.928Z,81.90
2022-08-03T06:48:02.811Z,82.00
2022-08-03T06:50:30.853Z,82.00
2022-08-03T06:52:58.999Z,82.10
2022-08-03T06:55:27.461Z,82.20
2022-08-03T06:57:56.040Z,82.10
2022-08-03T07:00:31.701Z,82.10
2022-08-03T07:02:59.503Z,81.90
2022-08-03T07:05:27.369Z,81.90
2022-08-03T07:07:57.919Z,82.00
2022-08-03T07:10:25.968Z,82.10
2022-08-03T07:12:56.507Z,82.10
2022-08-03T07:15:54.314Z,82.10
2022-08-03T07:18:14.026Z,82.00
2022-08-03T07:20:42.529Z,82.10
2022-08-03T07:23:10.472Z,82.00
2022-08-03T07:25:47.254Z,81.90
2022-08-03T07:28:15.811Z,82.00
2022-08-03T07:30:43.520Z,81.90
2022-08-03T07:33:11.851Z,81.90
2022-08-03T07:35:39.837Z,81.90
2022-08-03T07:38:07.769Z,81.90
2022-08-03T07:40:36.080Z,82.00
2022-08-03T07:43:04.035Z,82.00
2022-08-03T07:45:32.235Z,81.90
2022-08-03T07:48:00.547Z,81.90
2022-08-03T07:50:28.326Z,81.90
2022-08-03T07:52:56.318Z,81.90
2022-08-03T07:55:26.112Z,81.90
2022-08-03T07:58:06.399Z,81.80
2022-08-03T08:00:34.853Z,81.70
2022-08-03T08:03:03.598Z,81.60
2022-08-03T08:05:31.769Z,81.50
2022-08-03T08:08:00.299Z,81.50
2022-08-03T08:10:28.915Z,81.60
2022-08-03T08:12:57.234Z,81.60
2022-08-03T08:15:25.437Z,81.60
2022-08-03T08:17:56.153Z,81.60
2022-08-03T08:20:31.511Z,81.50
2022-08-03T08:23:02.699Z,81.30
2022-08-03T08:25:32.451Z,81.30
2022-08-03T08:28:30.890Z,81.30
2022-08-03T08:30:52.584Z,81.30
2022-08-03T08:33:23.270Z,81.20
2022-08-03T08:35:53.724Z,81.20
2022-08-03T08:38:23.393Z,81.20
2022-08-03T08:40:51.373Z,81.20
2022-08-03T08:43:24.011Z,81.20
2022-08-03T08:45:56.538Z,81.20
2022-08-03T08:48:27.485Z,81.20
2022-08-03T08:50:57.481Z,81.20
2022-08-03T08:53:29.737Z,81.00
2022-08-03T08:56:02.247Z,81.20
2022-08-03T08:58:34.892Z,81.20
2022-08-03T09:01:03.237Z,81.20
2022-08-03T09:03:33.836Z,81.00
2022-08-03T09:06:02.501Z,81.00
2022-08-03T09:08:32.417Z,81.00
2022-08-03T09:11:00.616Z,80.80
2022-08-03T09:13:29.451Z,80.70
2022-08-03T09:16:20.160Z,80.60
2022-08-03T09:18:50.905Z,80.50
2022-08-03T09:21:32.208Z,80.70
2022-08-03T09:24:04.830Z,80.60
2022-08-03T09:26:36.718Z,80.60
2022-08-03T09:29:14.497Z,80.70
2022-08-03T09:31:45.764Z,80.40
2022-08-03T09:34:16.498Z,80.30
2022-08-03T09:36:47.563Z,80.20
2022-08-03T09:39:42.510Z,80.30
2022-08-03T09:42:23.623Z,80.30
2022-08-03T09:44:52.851Z,80.10
2022-08-03T09:47:32.467Z,79.90
2022-08-03T09:50:08.613Z,79.80
2022-08-03T09:52:51.801Z,79.70
2022-08-03T09:56:35.586Z,79.70
2022-08-03T09:58:14.520Z,79.70
2022-08-03T10:01:24.058Z,79.80
2022-08-03T10:04:03.230Z,79.90
2022-08-03T10:06:33.102Z,79.90
2022-08-03T10:09:08.581Z,79.70
2022-08-03T10:11:41.231Z,79.80
2022-08-03T10:14:19.195Z,80.00
2022-08-03T10:16:48.850Z,79.90
2022-08-03T10:19:17.586Z,79.70
2022-08-03T10:21:56.067Z,79.70
2022-08-03T10:24:29.654Z,79.70
2022-08-03T10:27:04.211Z,79.70
2022-08-03T10:29:38.930Z,79.60
2022-08-03T10:32:42.179Z,79.60
2022-08-03T10:35:19.679Z,80.10
2022-08-03T10:38:06.885Z,79.50
2022-08-03T10:40:57.246Z,79.50
2022-08-03T10:43:37.557Z,79.40
2022-08-03T10:46:08.851Z,79.20
2022-08-03T10:48:37.188Z,79.10
2022-08-03T10:51:07.078Z,78.90
2022-08-03T10:53:39.743Z,78.90
2022-08-03T10:56:52.672Z,78.80
2022-08-03T10:59:46.771Z,78.70
2022-08-03T11:02:16.112Z,78.70
2022-08-03T11:04:47.513Z,78.70
2022-08-03T11:07:23.385Z,78.60
2022-08-03T11:09:53.612Z,78.70
2022-08-03T11:12:22.726Z,78.90
2022-08-03T11:15:05.447Z,78.60
2022-08-03T11:17:46.717Z,78.50
2022-08-03T11:20:46.343Z,78.30
2022-08-03T11:23:15.035Z,78.20
2022-08-03T11:26:11.712Z,78.80
2022-08-03T11:28:41.209Z,78.30
2022-08-03T11:31:48.680Z,78.30
2022-08-03T11:34:15.117Z,78.20
2022-08-03T11:37:23.318Z,78.20
2022-08-03T11:39:55.136Z,78.40
2022-08-03T11:42:23.072Z,78.40
2022-08-03T11:44:51.993Z,78.50
2022-08-03T11:47:22.102Z,78.40
2022-08-03T11:49:51.656Z,78.30
2022-08-03T11:52:27.000Z,78.30
2022-08-03T11:54:57.547Z,78.10
2022-08-03T11:59:01.447Z,78.30
2022-08-03T12:00:33.141Z,78.10
2022-08-03T12:03:04.916Z,78.20
2022-08-03T12:05:51.297Z,78.20
2022-08-03T12:08:32.519Z,77.90
2022-08-03T12:11:04.801Z,78.00
2022-08-03T12:14:45.690Z,78.00
2022-08-03T12:16:32.209Z,77.90
2022-08-03T12:19:01.942Z,77.80
2022-08-03T12:21:31.252Z,77.80
2022-08-03T12:24:01.538Z,77.60
2022-08-03T12:26:42.455Z,77.50
2022-08-03T12:29:17.123Z,77.50
2022-08-03T12:31:45.363Z,77.50
2022-08-03T12:34:13.853Z,77.70
2022-08-03T12:36:52.669Z,77.90
2022-08-03T12:39:25.519Z,78.00
2022-08-03T12:41:55.101Z,77.90
2022-08-03T12:44:36.809Z,77.90
2022-08-03T12:47:07.062Z,77.90
2022-08-03T12:49:54.365Z,77.90
2022-08-03T12:52:23.525Z,77.70
2022-08-03T12:54:59.707Z,77.80
2022-08-03T12:57:42.085Z,77.60
2022-08-03T13:00:21.209Z,77.60
2022-08-03T13:03:38.153Z,77.60
2022-08-03T13:05:50.097Z,77.70
2022-08-03T13:08:23.455Z,77.70
2022-08-03T13:10:52.190Z,77.70
2022-08-03T13:13:38.197Z,77.90
2022-08-03T13:16:06.357Z,78.00
2022-08-03T13:18:34.204Z,77.80
2022-08-03T13:21:02.415Z,77.70
2022-08-03T13:23:30.781Z,77.70
2022-08-03T13:25:58.856Z,77.80
2022-08-03T13:28:26.787Z,77.90
2022-08-03T13:30:55.183Z,77.80
2022-08-03T13:33:22.994Z,77.60
2022-08-03T13:35:50.845Z,77.40
2022-08-03T13:38:19.097Z,77.10
2022-08-03T13:40:49.465Z,77.00
2022-08-03T13:43:17.969Z,77.10
2022-08-03T13:45:50.386Z,77.10
2022-08-03T13:48:35.922Z,77.20
2022-08-03T13:51:11.757Z,77.30
2022-08-03T13:53:51.739Z,77.30
2022-08-03T13:56:20.203Z,77.10
2022-08-03T13:58:48.192Z,77.00
2022-08-03T14:01:16.674Z,76.70
2022-08-03T14:03:45.004Z,76.70
2022-08-03T14:06:13.604Z,76.60
2022-08-03T14:08:41.711Z,76.60
2022-08-03T14:11:09.875Z,76.60
2022-08-03T14:13:38.570Z,76.60
2022-08-03T14:16:06.846Z,76.50
2022-08-03T14:18:41.418Z,76.40
2022-08-03T14:21:09.749Z,76.20
2022-08-03T14:23:38.421Z,76.10
2022-08-03T14:26:07.959Z,76.20
2022-08-03T14:28:36.185Z,76.20
2022-08-03T14:31:08.402Z,76.20
2022-08-03T14:33:53.164Z,76.30
2022-08-03T14:36:20.970Z,76.30
2022-08-03T14:38:48.771Z,76.40
2022-08-03T14:41:19.823Z,76.40
2022-08-03T14:44:00.536Z,76.50
2022-08-03T14:46:31.451Z,76.40
2022-08-03T14:50:29.670Z,76.50
2022-08-03T14:51:51.554Z,76.50
2022-08-03T14:54:23.032Z,76.50
2022-08-03T14:56:51.756Z,76.40
2022-08-03T14:59:19.565Z,76.20
2022-08-03T15:02:03.144Z,76.10
2022-08-03T15:04:34.991Z,75.90
2022-08-03T15:07:02.866Z,75.70
2022-08-03T15:09:30.760Z,75.60
2022-08-03T15:11:59.146Z,75.60
2022-08-03T15:14:28.502Z,75.40
2022-08-03T15:17:00.809Z,75.40
2022-08-03T15:20:03.191Z,75.30
2022-08-03T15:22:19.055Z,75.30
2022-08-03T15:24:48.704Z,75.20
2022-08-03T15:27:16.925Z,75.20
2022-08-03T15:30:05.526Z,75.30
2022-08-03T15:32:34.213Z,75.30
2022-08-03T15:35:02.264Z,75.30
2022-08-03T15:37:30.093Z,75.20
2022-08-03T15:40:00.918Z,75.30
2022-08-03T15:42:30.428Z,75.20
2022-08-03T15:44:59.412Z,75.30
2022-08-03T15:47:27.341Z,75.40
2022-08-03T15:49:55.388Z,75.30
2022-08-03T15:52:23.606Z,75.20
2022-08-03T15:54:51.497Z,75.10
2022-08-03T15:57:19.792Z,75.00
2022-08-03T15:59:48.222Z,75.00
2022-08-03T16:02:16.474Z,75.10
2022-08-03T16:04:44.893Z,75.00
2022-08-03T16:07:14.485Z,75.00
2022-08-03T16:09:44.081Z,74.90
2022-08-03T16:12:15.604Z,74.90
2022-08-03T16:14:53.801Z,75.50
2022-08-03T16:17:23.819Z,74.90
2022-08-03T16:19:55.241Z,74.80
2022-08-03T16:22:26.905Z,74.70
2022-08-03T16:24:55.318Z,74.80
2022-08-03T16:27:56.561Z,74.80
2022-08-03T16:30:16.278Z,74.60
2022-08-03T16:32:45.608Z,74.60
2022-08-03T16:35:19.663Z,74.60
2022-08-03T16:37:56.149Z,74.60
2022-08-03T16:40:25.905Z,74.50
2022-08-03T16:42:54.436Z,74.50
2022-08-03T16:45:22.515Z,74.50
2022-08-03T16:48:01.514Z,74.40
2022-08-03T16:50:35.960Z,74.50
2022-08-03T16:53:16.248Z,74.60
2022-08-03T16:55:53.463Z,74.60
2022-08-03T16:58:41.195Z,74.60
2022-08-03T17:01:22.334Z,74.70
2022-08-03T17:04:02.117Z,74.70
2022-08-03T17:06:38.435Z,74.60
2022-08-03T17:09:18.067Z,74.60
2022-08-03T17:11:49.109Z,74.60
2022-08-03T17:14:22.025Z,74.50
2022-08-03T17:16:53.874Z,74.40
2022-08-03T17:19:24.503Z,74.40
2022-08-03T17:22:01.535Z,74.40
2022-08-03T17:24:33.923Z,74.30
2022-08-03T17:27:23.155Z,74.40
2022-08-03T17:30:09.344Z,74.30
2022-08-03T17:32:42.599Z,74.20
2022-08-03T17:35:11.409Z,74.10
2022-08-03T17:37:57.677Z,74.10
2022-08-03T17:40:26.617Z,74.20
2022-08-03T17:42:55.257Z,74.20
2022-08-03T17:45:23.241Z,74.20
2022-08-03T17:48:11.646Z,74.20
2022-08-03T17:50:59.822Z,74.10
2022-08-03T17:53:32.283Z,74.00
2022-08-03T17:56:40.877Z,74.10
2022-08-03T17:59:44.408Z,74.00
2022-08-03T18:03:16.250Z,74.10
2022-08-03T18:06:11.371Z,74.30
2022-08-03T18:08:51.139Z,74.80
2022-08-03T18:11:35.754Z,74.70
2022-08-03T18:14:19.506Z,74.70
2022-08-03T18:17:02.554Z,74.50
2022-08-03T18:20:02.552Z,74.60
2022-08-03T18:22:25.951Z,74.50
2022-08-03T18:24:56.252Z,74.60
2022-08-03T18:27:24.711Z,74.50
2022-08-03T18:30:13.957Z,74.40
2022-08-03T18:33:00.637Z,74.50
2022-08-03T18:35:53.571Z,74.40
2022-08-03T18:38:19.507Z,74.50
2022-08-03T18:40:52.253Z,74.60
2022-08-03T18:43:22.669Z,74.70
2022-08-03T18:46:29.084Z,74.70
2022-08-03T18:49:24.203Z,74.90
2022-08-03T18:52:18.391Z,74.90
2022-08-03T18:55:08.440Z,74.90
2022-08-03T18:57:53.105Z,75.10
2022-08-03T19:00:24.330Z,75.70
2022-08-03T19:03:07.468Z,75.10
2022-08-03T19:06:03.083Z,75.10
2022-08-03T19:09:03.191Z,75.00
2022-08-03T19:12:11.046Z,75.10
2022-08-03T19:14:46.131Z,75.00
2022-08-03T19:17:21.324Z,75.20
2022-08-03T19:19:52.546Z,75.50
2022-08-03T19:22:21.682Z,75.60
2022-08-03T19:24:53.206Z,75.50
2022-08-03T19:27:26.785Z,75.40
2022-08-03T19:30:01.067Z,75.30
2022-08-03T19:32:32.999Z,75.10
2022-08-03T19:35:03.090Z,75.10
2022-08-03T19:37:38.273Z,74.90
2022-08-03T19:40:10.860Z,74.70
2022-08-03T19:42:44.965Z,74.90
2022-08-03T19:45:21.486Z,74.80
2022-08-03T19:47:54.638Z,74.90
2022-08-03T19:50:22.763Z,74.80
2022-08-03T19:52:52.943Z,74.80
2022-08-03T19:55:23.189Z,74.80
2022-08-03T19:57:57.132Z,74.90
2022-08-03T20:00:30.485Z,74.80
2022-08-03T20:03:06.782Z,74.80
2022-08-03T20:05:51.941Z,74.70
2022-08-03T20:08:21.336Z,74.40
2022-08-03T20:10:51.288Z,74.40
2022-08-03T20:13:20.326Z,74.20
2022-08-03T20:15:48.205Z,74.40
2022-08-03T20:18:21.812Z,74.50
2022-08-03T20:20:52.724Z,74.50
2022-08-03T20:23:22.724Z,74.40
2022-08-03T20:25:58.843Z,74.30
2022-08-03T20:28:49.758Z,74.30
2022-08-03T20:31:23.821Z,74.30
2022-08-03T20:34:00.538Z,74.40
2022-08-03T20:36:28.398Z,74.40
2022-08-03T20:38:58.880Z,74.40
2022-08-03T20:41:27.508Z,74.30
2022-08-03T20:43:55.350Z,74.40
2022-08-03T20:46:32.788Z,74.50
2022-08-03T20:49:11.441Z,74.50
2022-08-03T20:51:52.657Z,74.40
2022-08-03T20:54:31.102Z,74.30
2022-08-03T20:57:04.415Z,74.40
2022-08-03T20:59:50.460Z,74.30
2022-08-03T21:02:29.732Z,74.40
2022-08-03T21:05:08.484Z,74.40
2022-08-03T21:08:04.872Z,74.40
2022-08-03T21:10:38.406Z,74.40
2022-08-03T21:13:34.948Z,74.40
2022-08-03T21:16:14.309Z,74.50
2022-08-03T21:18:51.095Z,74.40
2022-08-03T21:21:23.550Z,74.40
2022-08-03T21:23:55.494Z,74.40
2022-08-03T21:26:26.290Z,74.30
2022-08-03T21:28:56.708Z,74.40
2022-08-03T21:31:26.836Z,74.20
2022-08-03T21:34:02.209Z,74.10
2022-08-03T21:36:32.776Z,74.10
2022-08-03T21:39:02.203Z,74.10
2022-08-03T21:41:32.275Z,74.20
2022-08-03T21:44:01.329Z,74.20
2022-08-03T21:46:39.537Z,74.30
2022-08-03T21:50:04.201Z,74.20
2022-08-03T21:52:07.246Z,74.10
2022-08-03T21:54:37.564Z,74.20
2022-08-03T21:57:13.720Z,74.20
2022-08-03T21:59:52.623Z,74.20
2022-08-03T22:02:26.019Z,74.10
2022-08-03T22:04:55.298Z,74.20
2022-08-03T22:07:27.091Z,74.20
2022-08-03T22:09:57.089Z,74.20
2022-08-03T22:12:27.094Z,74.10
2022-08-03T22:15:00.116Z,74.10
2022-08-03T22:17:55.353Z,74.20
2022-08-03T22:20:21.947Z,74.30
2022-08-03T22:22:55.964Z,74.40
2022-08-03T22:25:29.443Z,74.50
2022-08-03T22:28:08.281Z,74.60
2022-08-03T22:30:37.639Z,74.50
2022-08-03T22:33:11.067Z,74.50
2022-08-03T22:35:47.640Z,74.60
2022-08-03T22:38:17.664Z,74.60
2022-08-03T22:40:51.202Z,74.80
2022-08-03T22:43:28.378Z,74.90
2022-08-03T22:46:10.303Z,74.90
2022-08-03T22:48:41.769Z,74.90
2022-08-03T22:51:10.750Z,74.80
2022-08-03T22:53:39.748Z,74.70
2022-08-03T22:56:08.424Z,74.90
2022-08-03T22:58:36.620Z,75.00
2022-08-03T23:01:09.211Z,75.00
2022-08-03T23:04:00.055Z,75.00
2022-08-03T23:06:37.090Z,75.00
2022-08-03T23:09:11.531Z,75.00
2022-08-03T23:11:45.607Z,75.00
2022-08-03T23:14:16.954Z,75.20
2022-08-03T23:16:45.866Z,75.20
2022-08-03T23:19:25.101Z,75.20
2022-08-03T23:22:02.456Z,75.40
2022-08-03T23:24:38.321Z,75.40
2022-08-03T23:27:08.280Z,75.30
2022-08-03T23:29:39.798Z,75.20
2022-08-03T23:32:08.547Z,75.30
2022-08-03T23:34:58.202Z,75.30
2022-08-03T23:37:27.043Z,75.30
2022-08-03T23:39:57.209Z,75.40
2022-08-03T23:42:25.885Z,75.40
2022-08-03T23:44:59.388Z,75.40
2022-08-03T23:47:46.278Z,75.50
2022-08-03T23:50:15.688Z,75.40
2022-08-03T23:53:12.317Z,75.50
2022-08-03T23:55:42.822Z,75.50
2022-08-03T23:58:44.704Z,75.60
